Time;durP1;ratioP1;P1;durP2;ratioP2;P2;SDS_P1;SDS_P2;PMS_P1;PMS_P2;Temp;Humidity;BMP_temperature;BMP_pressure;BME280_temperature;BME280_humidity;BME280_pressure;Samples;Min_cycle;Max_cycle;Signal;HPM_P1;HPM_P2
2022/09/09 00:01:15;;;;;;;16.75;11.18;;;14.70;99.90;;;;;;4793034;29;20051;-79
2022/09/09 00:03:51;;;;;;;14.70;10.80;;;14.60;99.90;;;;;;4792922;29;20065;-79
2022/09/09 00:06:23;;;;;;;14.93;11.57;;;14.70;99.90;;;;;;4793083;29;20054;-79
2022/09/09 00:09:01;;;;;;;13.77;10.85;;;14.70;99.90;;;;;;4793057;29;20129;-80
2022/09/09 00:11:36;;;;;;;15.57;10.93;;;14.70;99.90;;;;;;4792899;29;20055;-79
2022/09/09 00:14:08;;;;;;;13.60;11.00;;;14.70;99.90;;;;;;4792647;29;20062;-79
2022/09/09 00:16:39;;;;;;;15.20;11.15;;;14.70;99.90;;;;;;4792762;29;20129;-80
2022/09/09 00:19:14;;;;;;;19.30;10.88;;;14.70;99.90;;;;;;4792788;29;20054;-80
2022/09/09 00:22:03;;;;;;;16.52;11.15;;;14.70;99.90;;;;;;4808852;29;20112;-80
2022/09/09 00:24:55;;;;;;;16.00;11.48;;;14.70;99.90;;;;;;4792531;29;20062;-80
2022/09/09 00:27:33;;;;;;;16.42;10.45;;;14.70;99.90;;;;;;4792645;29;20111;-80
2022/09/09 00:30:14;;;;;;;14.95;11.13;;;14.70;99.90;;;;;;4792325;29;20059;-80
2022/09/09 00:32:40;;;;;;;12.60;10.55;;;14.70;99.90;;;;;;4792417;29;20058;-80
2022/09/09 00:35:21;;;;;;;14.80;10.60;;;14.70;99.90;;;;;;4792636;29;20069;-79
2022/09/09 00:37:49;;;;;;;17.05;10.82;;;14.60;99.90;;;;;;4792499;29;20518;-79
2022/09/09 00:40:33;;;;;;;15.30;10.45;;;14.60;99.90;;;;;;4792277;29;20050;-79
2022/09/09 00:43:22;;;;;;;15.27;10.35;;;14.60;99.90;;;;;;4792299;29;20058;-79
2022/09/09 00:45:57;;;;;;;15.90;10.43;;;14.60;99.90;;;;;;4792307;29;20059;-79
2022/09/09 00:48:36;;;;;;;14.55;10.35;;;14.50;99.90;;;;;;4792197;29;20055;-79
2022/09/09 00:51:14;;;;;;;16.00;10.07;;;14.50;99.90;;;;;;4792175;29;20107;-79
2022/09/09 00:53:56;;;;;;;14.27;10.15;;;14.50;99.90;;;;;;4792146;29;20055;-79
2022/09/09 00:56:30;;;;;;;13.68;10.50;;;14.50;99.90;;;;;;4792204;29;20086;-79
2022/09/09 00:59:27;;;;;;;14.63;9.82;;;14.40;99.90;;;;;;4792156;29;20111;-79
2022/09/09 01:01:54;;;;;;;14.48;9.75;;;14.40;99.90;;;;;;4803092;29;20491;-79
2022/09/09 01:04:32;;;;;;;19.35;10.45;;;14.40;99.90;;;;;;4791625;29;20138;-79
2022/09/09 01:07:11;;;;;;;14.43;10.32;;;14.40;99.90;;;;;;4791705;29;20429;-80
2022/09/09 01:09:59;;;;;;;13.75;10.73;;;14.40;99.90;;;;;;4792064;29;20525;-79
2022/09/09 01:12:27;;;;;;;14.63;9.85;;;14.40;99.90;;;;;;4807926;29;20515;-79
2022/09/09 01:15:04;;;;;;;15.35;10.60;;;14.30;99.90;;;;;;4791679;29;20502;-80
2022/09/09 01:17:50;;;;;;;13.73;10.07;;;14.40;99.90;;;;;;4807848;29;20138;-79
2022/09/09 01:20:31;;;;;;;15.57;10.48;;;14.40;99.90;;;;;;4791934;29;20144;-80
2022/09/09 01:23:02;;;;;;;17.40;10.77;;;14.40;99.90;;;;;;4791638;29;20103;-80
2022/09/09 01:25:56;;;;;;;12.85;10.73;;;14.40;99.90;;;;;;4792359;29;20138;-80
2022/09/09 01:28:27;;;;;;;20.08;11.02;;;14.30;99.90;;;;;;4791541;29;20395;-80
2022/09/09 01:30:55;;;;;;;14.73;10.18;;;14.30;99.90;;;;;;4791496;29;20434;-79
2022/09/09 01:33:21;;;;;;;18.17;11.00;;;14.30;99.90;;;;;;4791778;29;20059;-80
2022/09/09 01:35:55;;;;;;;15.10;10.43;;;14.30;99.90;;;;;;4791464;29;20051;-80
2022/09/09 01:38:22;;;;;;;15.63;11.02;;;14.30;99.90;;;;;;4791277;29;20407;-79
2022/09/09 01:40:49;;;;;;;18.75;11.23;;;14.30;99.90;;;;;;4806709;29;20538;-79
2022/09/09 01:43:15;;;;;;;16.35;11.02;;;14.30;99.90;;;;;;4791509;29;20050;-79
2022/09/09 01:45:42;;;;;;;15.25;10.48;;;14.30;99.90;;;;;;4791519;29;20399;-79
2022/09/09 01:48:08;;;;;;;13.00;10.27;;;14.20;99.90;;;;;;4791460;29;20046;-79
2022/09/09 01:50:33;;;;;;;16.08;11.32;;;14.20;99.90;;;;;;4807250;29;20055;-79
2022/09/09 01:53:01;;;;;;;14.57;11.18;;;14.20;99.90;;;;;;4790945;29;20133;-79
2022/09/09 01:55:35;;;;;;;18.23;11.07;;;14.20;99.90;;;;;;4791241;29;20063;-79
2022/09/09 01:58:26;;;;;;;14.63;10.65;;;14.20;99.90;;;;;;4807327;29;20057;-79
2022/09/09 02:01:33;;;;;;;19.17;10.95;;;14.20;99.90;;;;;;4791300;29;20530;-80
2022/09/09 02:04:07;;;;;;;17.67;10.80;;;14.20;99.90;;;;;;4790790;29;20051;-80
2022/09/09 02:06:39;;;;;;;14.95;11.07;;;14.20;99.90;;;;;;4791202;29;20050;-79
2022/09/09 02:09:07;;;;;;;14.57;10.77;;;14.30;99.90;;;;;;4791255;29;20046;-79
2022/09/09 02:11:34;;;;;;;15.57;10.70;;;14.20;99.90;;;;;;4807098;29;20050;-79
2022/09/09 02:14:13;;;;;;;16.30;10.95;;;14.30;99.90;;;;;;4790452;29;20534;-79
2022/09/09 02:16:48;;;;;;;14.50;12.00;;;14.20;99.90;;;;;;4790847;29;20066;-79
2022/09/09 02:19:26;;;;;;;17.63;10.93;;;14.20;99.90;;;;;;4790967;29;20526;-79
2022/09/09 02:21:55;;;;;;;15.55;10.45;;;14.20;99.90;;;;;;4790487;29;20042;-79
2022/09/09 02:24:22;;;;;;;13.82;10.35;;;14.20;99.90;;;;;;4790499;29;20051;-79
2022/09/09 02:26:52;;;;;;;14.85;10.20;;;14.10;99.90;;;;;;4790475;29;20053;-79
2022/09/09 02:29:23;;;;;;;14.18;10.27;;;14.20;99.90;;;;;;4790517;29;20411;-79
2022/09/09 02:31:50;;;;;;;15.80;11.20;;;14.20;99.90;;;;;;4790567;29;20130;-79
2022/09/09 02:34:20;;;;;;;13.10;9.93;;;14.10;99.90;;;;;;4790601;29;20112;-79
2022/09/09 02:36:46;;;;;;;13.52;9.93;;;14.10;99.90;;;;;;4790395;29;20059;-79
2022/09/09 02:39:12;;;;;;;15.50;10.95;;;14.10;99.90;;;;;;4806664;29;20054;-79
2022/09/09 02:41:41;;;;;;;16.38;10.13;;;14.10;99.90;;;;;;4806739;29;20042;-79
2022/09/09 02:44:16;;;;;;;13.27;10.82;;;14.20;99.90;;;;;;4790253;29;20491;-79
2022/09/09 02:46:49;;;;;;;13.70;10.25;;;14.10;99.90;;;;;;4790538;29;20059;-79
2022/09/09 02:49:17;;;;;;;;;;;14.20;99.90;;;;;;4807284;29;20047;-79
2022/09/09 02:51:55;;;;;;;13.45;10.15;;;14.10;99.90;;;;;;4790039;29;19925;-79
2022/09/09 02:54:32;;;;;;;15.55;10.52;;;14.10;99.90;;;;;;4790078;29;20448;-79
2022/09/09 02:57:19;;;;;;;16.13;10.82;;;14.10;99.90;;;;;;4790553;29;20055;-79
2022/09/09 02:59:46;;;;;;;14.27;10.10;;;14.10;99.90;;;;;;4790496;29;20069;-79
2022/09/09 03:02:12;;;;;;;14.02;11.02;;;14.10;99.90;;;;;;4790408;29;20055;-79
2022/09/09 03:04:39;;;;;;;14.57;10.40;;;14.10;99.90;;;;;;4790175;29;20057;-79
2022/09/09 03:07:05;;;;;;;15.77;10.15;;;14.10;99.90;;;;;;4790480;29;20057;-79
2022/09/09 03:09:32;;;;;;;16.67;10.07;;;14.10;99.90;;;;;;4790132;29;20436;-80
2022/09/09 03:11:58;;;;;;;14.05;9.55;;;14.10;99.90;;;;;;4789979;29;20051;-80
2022/09/09 03:14:25;;;;;;;13.15;10.15;;;14.10;99.90;;;;;;4789905;29;20412;-79
2022/09/09 03:16:51;;;;;;;13.45;9.10;;;14.00;99.90;;;;;;4806211;29;20388;-79
2022/09/09 03:19:18;;;;;;;15.60;10.18;;;14.00;99.90;;;;;;4790203;29;20395;-79
2022/09/09 03:21:45;;;;;;;15.75;10.30;;;14.00;99.90;;;;;;4790106;29;20496;-80
2022/09/09 03:24:10;;;;;;;17.50;10.77;;;14.10;99.90;;;;;;4806199;29;20096;-80
2022/09/09 03:26:37;;;;;;;12.73;10.27;;;14.00;99.90;;;;;;4790213;29;20485;-80
2022/09/09 03:29:06;;;;;;;14.75;10.48;;;14.10;99.90;;;;;;4789974;29;20157;-80
2022/09/09 03:31:32;;;;;;;11.88;9.80;;;14.10;99.90;;;;;;4790242;29;20059;-80
2022/09/09 03:33:58;;;;;;;12.73;10.52;;;14.00;99.90;;;;;;4790261;29;20147;-80
2022/09/09 03:36:26;;;;;;;14.27;10.23;;;14.00;99.90;;;;;;4789994;29;20085;-79
2022/09/09 03:38:53;;;;;;;12.60;10.07;;;14.00;99.90;;;;;;4789900;29;20063;-80
2022/09/09 03:41:19;;;;;;;12.75;9.27;;;14.00;99.90;;;;;;4789459;29;20058;-80
2022/09/09 03:43:44;;;;;;;13.75;9.85;;;14.00;99.90;;;;;;4789790;29;20066;-80
2022/09/09 03:46:10;;;;;;;13.75;9.93;;;14.00;99.90;;;;;;4789735;29;20184;-80
2022/09/09 03:48:36;;;;;;;15.25;10.07;;;13.90;99.90;;;;;;4805797;29;20054;-80
2022/09/09 03:51:02;;;;;;;12.45;9.35;;;13.90;99.90;;;;;;4789973;29;20054;-80
2022/09/09 03:53:29;;;;;;;14.77;9.90;;;13.90;99.90;;;;;;4789688;29;20472;-80
2022/09/09 03:55:59;;;;;;;13.02;9.48;;;13.90;99.90;;;;;;4789601;29;20480;-80
2022/09/09 03:58:26;;;;;;;15.45;9.18;;;13.90;99.90;;;;;;4789805;29;20058;-80
2022/09/09 04:01:03;;;;;;;14.95;9.73;;;13.90;99.90;;;;;;4789944;29;20411;-80
2022/09/09 04:03:29;;;;;;;13.57;10.57;;;13.90;99.90;;;;;;4789737;29;20047;-79
2022/09/09 04:05:56;;;;;;;14.95;10.57;;;13.90;99.90;;;;;;4792736;29;20058;-79
2022/09/09 04:08:25;;;;;;;14.20;10.13;;;13.90;99.90;;;;;;4792857;29;20130;-79
2022/09/09 04:10:51;;;;;;;14.27;10.68;;;13.90;99.90;;;;;;4792869;29;20058;-79
2022/09/09 04:13:18;;;;;;;15.18;10.55;;;13.90;99.90;;;;;;4792522;29;20141;-80
2022/09/09 04:15:44;;;;;;;15.70;10.18;;;13.90;99.90;;;;;;4809114;29;20050;-80
2022/09/09 04:18:11;;;;;;;13.73;10.02;;;13.90;99.90;;;;;;4808946;29;20065;-80
2022/09/09 04:20:37;;;;;;;15.43;10.60;;;13.90;99.90;;;;;;4792597;29;20047;-79
2022/09/09 04:23:04;;;;;;;13.18;10.23;;;13.90;99.90;;;;;;4809273;29;20051;-80
2022/09/09 04:25:30;;;;;;;15.63;10.07;;;13.90;99.90;;;;;;4792649;29;20062;-80
2022/09/09 04:27:57;;;;;;;16.50;10.93;;;14.00;99.90;;;;;;4792789;29;20051;-79
2022/09/09 04:30:23;;;;;;;16.75;10.98;;;13.90;99.90;;;;;;4792872;29;20049;-79
2022/09/09 04:32:48;;;;;;;16.75;11.10;;;14.00;99.90;;;;;;4808768;29;20507;-79
2022/09/09 04:35:14;;;;;;;17.25;10.93;;;14.00;99.90;;;;;;4792352;29;20046;-79
2022/09/09 04:37:40;;;;;;;15.77;11.38;;;14.00;99.90;;;;;;4808505;29;20061;-79
2022/09/09 04:40:09;;;;;;;15.48;10.00;;;14.00;99.90;;;;;;4792373;29;20082;-79
2022/09/09 04:42:39;;;;;;;18.20;11.40;;;14.00;99.90;;;;;;4808552;29;20051;-79
2022/09/09 04:45:06;;;;;;;19.83;11.55;;;14.10;99.90;;;;;;4808398;29;20058;-78
2022/09/09 04:47:32;;;;;;;16.38;11.43;;;14.10;99.90;;;;;;4808291;29;20051;-79
2022/09/09 04:49:58;;;;;;;15.20;10.93;;;14.10;99.90;;;;;;4792085;29;20517;-79
2022/09/09 04:52:24;;;;;;;17.08;11.68;;;14.20;99.90;;;;;;4792177;29;20051;-80
2022/09/09 04:54:50;;;;;;;20.85;11.27;;;14.10;99.90;;;;;;4791921;29;20066;-79
2022/09/09 04:57:15;;;;;;;16.27;10.95;;;14.10;99.90;;;;;;4807579;29;20149;-79
2022/09/09 04:59:41;;;;;;;16.42;11.18;;;14.20;99.90;;;;;;4790972;29;20047;-80
2022/09/09 05:02:07;;;;;;;16.85;11.65;;;14.20;99.90;;;;;;4807877;29;20157;-79
2022/09/09 05:04:33;;;;;;;18.50;11.05;;;14.20;99.90;;;;;;4791857;29;20101;-79
2022/09/09 05:06:59;;;;;;;16.35;11.38;;;14.20;99.90;;;;;;4791693;29;20420;-80
2022/09/09 05:09:25;;;;;;;16.08;11.10;;;14.20;99.90;;;;;;4808146;29;20047;-79
2022/09/09 05:11:51;;;;;;;16.35;10.98;;;14.20;99.90;;;;;;4791883;29;20054;-79
2022/09/09 05:14:17;;;;;;;15.77;10.50;;;14.20;99.90;;;;;;4807670;29;20149;-79
2022/09/09 05:16:44;;;;;;;15.07;10.18;;;14.20;99.90;;;;;;4790792;29;20059;-80
2022/09/09 05:19:11;;;;;;;16.33;10.82;;;14.20;99.90;;;;;;4791475;29;20054;-80
2022/09/09 05:21:37;;;;;;;16.55;10.90;;;14.20;99.90;;;;;;4791737;29;20155;-80
2022/09/09 05:24:03;;;;;;;15.63;10.98;;;14.20;99.90;;;;;;4807779;29;20088;-80
2022/09/09 05:26:29;;;;;;;14.95;10.35;;;14.20;99.90;;;;;;4791349;29;20047;-79
2022/09/09 05:28:55;;;;;;;14.25;10.10;;;14.30;99.90;;;;;;4791271;29;20054;-79
2022/09/09 05:31:21;;;;;;;13.60;10.35;;;14.20;99.90;;;;;;4807785;29;20043;-79
2022/09/09 05:33:49;;;;;;;16.70;10.32;;;14.20;99.90;;;;;;4791527;29;20138;-79
2022/09/09 05:36:20;;;;;;;16.08;10.25;;;14.20;99.90;;;;;;4791215;29;20515;-79
2022/09/09 05:38:46;;;;;;;15.95;10.82;;;14.30;99.90;;;;;;4807652;29;20058;-79
2022/09/09 05:41:15;;;;;;;17.58;10.48;;;14.30;99.90;;;;;;4791072;29;20134;-79
2022/09/09 05:43:43;;;;;;;18.15;11.25;;;14.30;99.90;;;;;;4807386;29;20051;-79
2022/09/09 05:46:11;;;;;;;15.63;10.23;;;14.30;99.90;;;;;;4791289;29;20468;-80
2022/09/09 05:48:39;;;;;;;15.60;10.60;;;14.40;99.90;;;;;;4807471;29;20039;-79
2022/09/09 05:51:08;;;;;;;16.10;9.60;;;14.40;99.90;;;;;;4790966;29;20103;-81
2022/09/09 05:53:34;;;;;;;16.85;10.27;;;14.30;99.90;;;;;;4807315;29;20116;-80
2022/09/09 05:56:05;;;;;;;16.83;10.32;;;14.40;99.90;;;;;;4807019;29;20034;-79
2022/09/09 05:58:34;;;;;;;15.00;10.07;;;14.40;99.90;;;;;;4790848;29;20154;-79
2022/09/09 06:01:05;;;;;;;17.15;10.90;;;14.40;99.90;;;;;;4791243;29;20506;-79
2022/09/09 06:03:31;;;;;;;15.38;10.77;;;14.40;99.90;;;;;;4807126;29;20086;-79
2022/09/09 06:05:58;;;;;;;15.82;10.10;;;14.40;99.90;;;;;;4790758;29;20483;-80
2022/09/09 06:08:25;;;;;;;16.67;10.52;;;14.40;99.90;;;;;;4790639;29;20511;-79
2022/09/09 06:10:52;;;;;;;16.77;10.43;;;14.40;99.90;;;;;;4790596;29;20483;-79
2022/09/09 06:13:18;;;;;;;15.07;11.23;;;14.40;99.90;;;;;;4790345;29;20142;-79
2022/09/09 06:15:53;;;;;;;17.23;11.13;;;14.40;99.90;;;;;;4790597;29;20138;-79
2022/09/09 06:18:19;;;;;;;18.20;11.38;;;14.40;99.90;;;;;;4806779;29;20123;-81
2022/09/09 06:21:00;;;;;;;15.65;10.73;;;14.40;99.90;;;;;;4790790;29;20409;-79
2022/09/09 06:23:26;;;;;;;15.73;11.10;;;14.50;99.90;;;;;;4806538;29;20436;-79
2022/09/09 06:26:00;;;;;;;17.02;11.10;;;14.50;99.90;;;;;;4790703;29;20054;-79
2022/09/09 06:28:26;;;;;;;16.58;11.13;;;14.50;99.90;;;;;;4790324;29;20051;-79
2022/09/09 06:30:58;;;;;;;16.70;11.18;;;14.50;99.90;;;;;;4788120;29;20055;-78
2022/09/09 06:33:24;;;;;;;16.00;10.88;;;14.50;99.90;;;;;;4779067;29;20066;-79
2022/09/09 06:35:53;;;;;;;18.80;11.23;;;14.50;99.90;;;;;;4806346;29;20059;-79
2022/09/09 06:38:19;;;;;;;15.45;11.25;;;14.60;99.90;;;;;;4790058;29;20055;-79
2022/09/09 06:40:55;;;;;;;17.25;11.43;;;14.60;99.90;;;;;;4790286;29;20078;-79
2022/09/09 06:43:22;;;;;;;14.80;11.15;;;14.60;99.90;;;;;;4790178;29;20491;-80
2022/09/09 06:46:04;;;;;;;17.05;11.13;;;14.60;99.90;;;;;;4789939;29;20404;-80
2022/09/09 06:48:29;;;;;;;16.33;10.82;;;14.60;99.90;;;;;;4790206;29;20042;-79
2022/09/09 06:51:05;;;;;;;17.10;11.23;;;14.70;99.90;;;;;;4790196;29;20057;-79
2022/09/09 06:53:33;;;;;;;19.92;11.65;;;14.60;99.90;;;;;;4789870;29;20055;-80
2022/09/09 06:56:02;;;;;;;18.05;11.27;;;14.60;99.90;;;;;;4789955;29;20119;-79
2022/09/09 06:58:28;;;;;;;16.42;10.40;;;14.70;99.90;;;;;;4790089;29;20106;-79
2022/09/09 07:01:07;;;;;;;15.95;10.85;;;14.80;99.90;;;;;;4790147;29;20082;-79
2022/09/09 07:03:33;;;;;;;18.55;11.27;;;14.80;99.90;;;;;;4806196;29;20047;-80
2022/09/09 07:05:59;;;;;;;17.10;11.45;;;15.00;99.90;;;;;;4789902;29;20058;-80
2022/09/09 07:08:26;;;;;;;16.83;11.32;;;15.10;99.90;;;;;;4790007;29;20134;-79
2022/09/09 07:10:55;;;;;;;19.67;11.45;;;15.10;99.90;;;;;;4789830;29;20061;-80
2022/09/09 07:13:25;;;;;;;16.63;11.20;;;15.20;99.90;;;;;;4789695;29;20423;-79
2022/09/09 07:15:52;;;;;;;16.50;10.98;;;15.20;99.90;;;;;;4789985;29;20086;-81
2022/09/09 07:18:18;;;;;;;17.33;11.90;;;15.10;99.90;;;;;;4789873;29;20395;-79
2022/09/09 07:20:53;;;;;;;15.13;11.38;;;15.10;99.90;;;;;;4789893;29;20560;-79
2022/09/09 07:23:18;;;;;;;18.08;12.13;;;15.10;99.90;;;;;;4789576;29;20062;-79
2022/09/09 07:25:45;;;;;;;16.42;11.13;;;15.20;99.90;;;;;;4789914;29;20058;-79
2022/09/09 07:28:11;;;;;;;17.48;11.55;;;15.10;99.90;;;;;;4789855;29;20451;-79
2022/09/09 07:30:37;;;;;;;16.23;11.32;;;15.20;99.90;;;;;;4806019;29;20067;-79
2022/09/09 07:33:03;;;;;;;18.67;11.73;;;15.20;99.90;;;;;;4789599;29;20123;-79
2022/09/09 07:35:28;;;;;;;15.82;10.48;;;15.20;99.90;;;;;;4789042;29;20050;-79
2022/09/09 07:37:54;;;;;;;14.57;10.05;;;15.20;99.90;;;;;;4789865;29;20081;-79
2022/09/09 07:40:21;;;;;;;14.73;11.02;;;15.10;99.90;;;;;;4792189;29;20038;-79
2022/09/09 07:42:47;;;;;;;18.23;10.77;;;15.20;99.90;;;;;;4792760;29;20070;-78
2022/09/09 07:45:14;;;;;;;16.33;10.02;;;15.20;99.90;;;;;;4809231;29;20050;-79
2022/09/09 07:47:42;;;;;;;15.57;9.93;;;15.20;99.90;;;;;;4793148;29;20051;-79
2022/09/09 07:50:08;;;;;;;15.32;10.00;;;15.30;99.90;;;;;;4792860;29;20055;-79
2022/09/09 07:52:34;;;;;;;18.35;10.05;;;15.30;99.90;;;;;;4809167;29;20046;-78
2022/09/09 07:55:02;;;;;;;13.40;8.98;;;15.30;99.90;;;;;;4809152;29;20062;-79
2022/09/09 07:57:30;;;;;;;14.07;10.02;;;15.40;99.90;;;;;;4792901;29;20076;-78
2022/09/09 07:59:56;;;;;;;16.27;9.05;;;15.40;99.90;;;;;;4792887;29;20051;-79
2022/09/09 08:02:22;;;;;;;16.13;9.52;;;15.60;99.90;;;;;;4792658;29;20491;-79
2022/09/09 08:04:48;;;;;;;13.98;9.65;;;15.60;99.90;;;;;;4791918;29;20054;-79
2022/09/09 08:07:15;;;;;;;11.27;8.38;;;15.70;99.90;;;;;;4808854;29;20043;-78
2022/09/09 08:09:41;;;;;;;11.70;7.70;;;15.80;99.90;;;;;;4792691;29;20053;-79
2022/09/09 08:12:08;;;;;;;14.82;9.20;;;15.80;99.90;;;;;;4792745;29;20407;-80
2022/09/09 08:14:33;;;;;;;12.57;8.35;;;16.00;99.90;;;;;;4792325;29;20118;-78
2022/09/09 08:16:59;;;;;;;12.80;8.60;;;16.10;99.90;;;;;;4792451;29;20428;-81
2022/09/09 08:19:28;;;;;;;12.50;8.38;;;16.20;99.90;;;;;;4792595;29;20054;-79
2022/09/09 08:21:54;;;;;;;14.73;8.02;;;16.30;99.90;;;;;;4792101;29;20083;-79
2022/09/09 08:24:19;;;;;;;12.65;8.55;;;16.50;99.90;;;;;;4792198;29;20125;-79
2022/09/09 08:26:49;;;;;;;12.30;8.07;;;16.60;99.90;;;;;;4792240;29;20095;-78
2022/09/09 08:29:15;;;;;;;9.90;7.75;;;16.70;99.90;;;;;;4792210;29;20058;-78
2022/09/09 08:31:57;;;;;;;11.32;7.35;;;16.80;99.90;;;;;;4792364;29;20436;-78
2022/09/09 08:34:23;;;;;;;11.95;7.43;;;16.80;99.90;;;;;;4792270;29;20491;-78
2022/09/09 08:36:50;;;;;;;9.48;7.30;;;17.00;99.90;;;;;;4792131;29;20050;-79
2022/09/09 08:39:19;;;;;;;11.48;7.50;;;17.00;99.90;;;;;;4792050;29;20118;-78
2022/09/09 08:42:02;;;;;;;11.82;6.85;;;16.90;99.90;;;;;;4821031;29;20054;-79
2022/09/09 08:44:34;;;;;;;9.35;7.10;;;16.70;99.90;;;;;;4778746;30;20080;-79
2022/09/09 08:47:25;;;;;;;9.15;6.57;;;16.70;99.90;;;;;;4773862;29;20527;-78
2022/09/09 08:50:13;;;;;;;10.93;6.82;;;16.80;99.90;;;;;;4773989;30;20130;-78
2022/09/09 08:53:01;;;;;;;11.82;6.75;;;16.70;99.90;;;;;;4774156;30;20062;-79
2022/09/09 08:55:36;;;;;;;10.45;6.25;;;16.70;99.90;;;;;;4773779;30;20138;-78
2022/09/09 08:58:20;;;;;;;13.35;7.18;;;16.70;99.90;;;;;;4790191;30;20118;-79
2022/09/09 09:01:06;;;;;;;13.73;5.80;;;16.90;99.90;;;;;;4789875;30;20126;-78
2022/09/09 09:03:57;;;;;;;8.75;6.22;;;16.80;99.90;;;;;;4788732;29;20083;-79
2022/09/09 09:06:36;;;;;;;7.80;5.95;;;16.90;99.90;;;;;;4789697;29;20107;-76
2022/09/09 09:09:23;;;;;;;9.30;6.28;;;17.00;99.90;;;;;;4789902;29;20046;-74
2022/09/09 09:12:00;;;;;;;8.98;6.43;;;17.00;99.90;;;;;;4789750;29;20281;-74
2022/09/09 09:14:28;;;;;;;9.02;6.45;;;17.20;99.90;;;;;;4789638;29;20058;-76
2022/09/09 09:17:05;;;;;;;11.70;6.35;;;17.10;99.90;;;;;;4790670;29;20142;-76
2022/09/09 09:19:34;;;;;;;9.02;6.10;;;17.20;99.90;;;;;;4791320;29;20384;-76
2022/09/09 09:22:07;;;;;;;7.80;5.57;;;17.20;99.90;;;;;;4791510;29;20063;-76
2022/09/09 09:24:42;;;;;;;;;;;17.30;99.90;;;;;;4791789;29;20062;-76
2022/09/09 09:27:14;;;;;;;14.25;5.70;;;17.30;99.90;;;;;;4791544;29;20011;-75
2022/09/09 09:29:41;;;;;;;10.87;5.27;;;17.40;99.90;;;;;;4791520;29;20522;-76
2022/09/09 09:32:13;;;;;;;10.43;5.78;;;17.40;99.90;;;;;;4791306;29;20054;-76
2022/09/09 09:34:39;;;;;;;9.73;5.88;;;17.50;99.90;;;;;;4791249;29;20402;-77
2022/09/09 09:37:27;;;;;;;7.82;5.50;;;17.50;99.90;;;;;;4791048;29;20055;-76
2022/09/09 09:39:53;;;;;;;9.43;6.28;;;17.60;99.90;;;;;;4791084;29;20059;-77
2022/09/09 09:42:19;;;;;;;11.02;6.15;;;17.70;99.90;;;;;;4791018;29;20058;-76
2022/09/09 09:44:45;;;;;;;12.57;5.82;;;17.90;99.90;;;;;;4790905;29;20055;-77
2022/09/09 09:47:19;;;;;;;10.82;6.50;;;17.90;99.90;;;;;;4807107;29;20407;-76
2022/09/09 09:49:53;;;;;;;13.65;6.43;;;17.90;99.90;;;;;;4791090;29;20090;-78
2022/09/09 09:52:26;;;;;;;11.68;5.72;;;17.90;99.90;;;;;;4790844;29;20051;-77
2022/09/09 09:54:52;;;;;;;;;;;18.00;99.90;;;;;;4791378;29;20099;-77
2022/09/09 09:57:26;;;;;;;10.45;5.50;;;18.00;99.90;;;;;;4807299;29;19964;-76
2022/09/09 10:00:05;;;;;;;9.45;5.95;;;17.90;99.90;;;;;;4791008;29;20129;-77
2022/09/09 10:02:38;;;;;;;7.22;5.38;;;18.00;99.90;;;;;;4790136;29;20480;-76
2022/09/09 10:05:25;;;;;;;;;;;18.00;99.90;;;;;;4791023;29;20051;-76
2022/09/09 10:08:20;;;;;;;12.50;5.13;;;17.90;99.90;;;;;;4790841;29;19947;-76
2022/09/09 10:11:04;;;;;;;12.77;4.97;;;18.00;99.90;;;;;;4783092;29;20074;-76
2022/09/09 10:13:50;;;;;;;11.52;4.32;;;18.00;99.90;;;;;;4790165;29;20478;-77
2022/09/09 10:16:35;;;;;;;7.57;4.05;;;17.80;99.90;;;;;;4790415;29;20061;-76
2022/09/09 10:19:06;;;;;;;9.82;4.30;;;17.90;99.90;;;;;;4790279;29;20058;-76
2022/09/09 10:21:57;;;;;;;8.55;3.63;;;17.90;99.90;;;;;;4790341;29;20089;-76
2022/09/09 10:24:32;;;;;;;6.57;3.05;;;17.90;99.90;;;;;;4790388;29;20131;-77
2022/09/09 10:27:25;;;;;;;9.38;3.47;;;17.80;99.90;;;;;;4790178;29;20051;-76
2022/09/09 10:30:08;;;;;;;8.45;3.15;;;17.90;99.90;;;;;;4806585;29;20081;-76
2022/09/09 10:32:34;;;;;;;;;;;17.80;99.90;;;;;;4790712;29;20082;-76
2022/09/09 10:35:23;;;;;;;9.93;3.88;;;17.80;99.90;;;;;;4790377;29;19968;-77
2022/09/09 10:38:11;;;;;;;5.95;3.25;;;17.80;99.90;;;;;;4790414;29;20541;-76
2022/09/09 10:40:57;;;;;;;8.23;3.28;;;17.80;99.90;;;;;;4820428;29;20061;-76
2022/09/09 10:43:45;;;;;;;6.43;2.60;;;17.90;99.90;;;;;;4806289;29;20508;-77
2022/09/09 10:46:32;;;;;;;7.45;3.30;;;18.00;99.90;;;;;;4790201;29;20057;-76
2022/09/09 10:49:14;;;;;;;11.07;3.40;;;18.00;99.90;;;;;;4789811;29;20055;-78
2022/09/09 10:51:52;;;;;;;9.23;3.05;;;18.10;99.90;;;;;;4790273;29;20055;-78
2022/09/09 10:54:54;;;;;;;7.38;2.83;;;18.20;99.90;;;;;;4789961;29;20097;-78
2022/09/09 10:57:31;;;;;;;8.60;2.90;;;18.20;99.90;;;;;;4789833;29;20055;-79
2022/09/09 11:00:06;;;;;;;5.50;2.90;;;18.20;99.90;;;;;;4789974;29;20054;-79
2022/09/09 11:02:34;;;;;;;8.52;3.15;;;18.20;99.90;;;;;;4820044;29;20090;-78
2022/09/09 11:05:19;;;;;;;7.55;3.22;;;18.20;99.90;;;;;;4789818;29;20054;-78
2022/09/09 11:07:53;;;;;;;6.10;2.97;;;18.20;99.90;;;;;;4806251;29;20043;-76
2022/09/09 11:10:36;;;;;;;8.95;2.90;;;18.20;99.90;;;;;;4806033;29;20566;-77
2022/09/09 11:13:05;;;;;;;7.75;2.50;;;18.30;99.90;;;;;;4789697;29;20058;-77
2022/09/09 11:15:45;;;;;;;4.43;1.80;;;18.40;99.90;;;;;;4792925;29;20519;-77
2022/09/09 11:18:17;;;;;;;6.70;1.90;;;18.50;99.90;;;;;;4793542;29;20491;-77
2022/09/09 11:20:46;;;;;;;7.53;2.27;;;18.60;99.90;;;;;;4793671;29;20070;-78
2022/09/09 11:23:27;;;;;;;9.02;2.13;;;18.70;99.90;;;;;;4796995;29;20046;-96
2022/09/09 11:26:03;;;;;;;7.00;2.05;;;18.80;99.90;;;;;;4788431;29;20051;-88
2022/09/09 11:28:38;;;;;;;5.57;2.20;;;18.80;99.90;;;;;;4794246;29;20417;-94
2022/09/09 11:31:41;;;;;;;8.55;2.20;;;18.90;99.90;;;;;;4796982;29;20050;-88
2022/09/09 11:34:33;;;;;;;8.98;1.90;;;19.00;99.90;;;;;;4794413;29;20055;-96
2022/09/09 11:37:34;;;;;;;8.30;1.98;;;19.10;99.90;;;;;;4793515;29;20073;-91
2022/09/09 11:40:27;;;;;;;6.60;2.05;;;19.30;99.90;;;;;;4793633;29;20066;-91
2022/09/09 11:43:31;;;;;;;6.47;1.73;;;19.50;99.90;;;;;;4793454;29;20090;-89
2022/09/09 11:46:02;;;;;;;6.20;1.90;;;19.70;99.90;;;;;;4793222;29;20487;-85
2022/09/09 11:49:42;;;;;;;9.15;1.85;;;19.80;99.90;;;;;;4825242;29;20396;-94
2022/09/09 11:52:37;;;;;;;8.45;2.13;;;19.80;99.90;;;;;;4751460;29;20063;-88
2022/09/09 11:55:33;;;;;;;6.60;2.67;;;19.80;99.90;;;;;;4824873;29;20054;-89
2022/09/09 11:58:00;;;;;;;6.13;2.22;;;19.70;99.90;;;;;;4793094;29;20071;-87
2022/09/09 12:00:34;;;;;;;7.60;2.38;;;19.60;99.90;;;;;;4795281;29;20063;-79
2022/09/09 12:02:59;;;;;;;8.60;2.30;;;19.50;99.90;;;;;;4809147;29;20114;-83
2022/09/09 12:05:42;;;;;;;9.10;2.70;;;19.60;99.90;;;;;;4792584;29;20129;-83
2022/09/09 12:08:17;;;;;;;;;;;19.70;99.90;;;;;;4793026;29;20100;-80
2022/09/09 12:10:57;;;;;;;5.93;2.05;;;19.70;99.90;;;;;;4822949;29;19977;-82
2022/09/09 12:13:26;;;;;;;7.78;2.50;;;19.60;99.90;;;;;;4792287;29;20098;-83
2022/09/09 12:15:57;;;;;;;6.78;2.08;;;19.50;99.90;;;;;;4792869;29;20532;-87
2022/09/09 12:18:25;;;;;;;5.88;1.90;;;19.60;99.90;;;;;;4794853;29;20085;-90
2022/09/09 12:21:16;;;;;;;5.18;1.77;;;19.50;99.90;;;;;;4823710;24;20098;-95
2022/09/09 12:24:16;;;;;;;7.30;2.03;;;19.50;99.90;;;;;;4789734;29;20107;-77
2022/09/09 12:26:59;;;;;;;7.38;1.63;;;19.50;99.90;;;;;;4826390;29;20055;-79
2022/09/09 12:29:35;;;;;;;6.63;1.48;;;19.50;99.90;;;;;;4810542;29;20054;-77
2022/09/09 12:32:04;;;;;;;4.90;1.70;;;19.40;99.90;;;;;;4810456;29;20066;-76
2022/09/09 12:34:48;;;;;;;4.78;1.67;;;19.30;99.90;;;;;;4810095;29;20079;-77
2022/09/09 12:37:33;;;;;;;5.18;1.75;;;19.30;99.90;;;;;;4810177;29;20065;-77
2022/09/09 12:40:02;;;;;;;4.47;1.70;;;19.40;99.90;;;;;;4810224;29;20046;-77
2022/09/09 12:42:28;;;;;;;8.00;1.90;;;19.70;99.90;;;;;;4810079;29;20050;-77
2022/09/09 12:44:58;;;;;;;6.68;2.40;;;20.00;99.90;;;;;;4809955;29;20107;-77
2022/09/09 12:47:55;;;;;;;6.63;2.00;;;20.10;99.90;;;;;;4810074;29;20115;-77
2022/09/09 12:50:31;;;;;;;5.68;1.92;;;20.20;99.90;;;;;;4805032;29;20579;-76
2022/09/09 12:53:01;;;;;;;7.03;2.22;;;20.20;99.90;;;;;;4809903;29;20250;-76
2022/09/09 12:55:34;;;;;;;7.10;2.22;;;19.90;99.90;;;;;;4810070;29;20118;-77
2022/09/09 12:58:05;;;;;;;4.85;2.15;;;19.90;99.90;;;;;;4826710;29;20061;-77
2022/09/09 13:00:33;;;;;;;6.18;1.80;;;19.80;99.90;;;;;;4809682;29;20054;-78
2022/09/09 13:03:01;;;;;;;6.18;1.70;;;19.90;99.90;;;;;;4809747;29;20118;-76
2022/09/09 13:05:36;;;;;;;6.10;2.10;;;20.10;99.90;;;;;;4809530;29;20697;-77